createdAt,value
2022-12-12T00:04:56.778Z,37.00
2022-12-12T00:09:59.726Z,36.90
2022-12-12T00:15:02.445Z,37.10
2022-12-12T00:20:07.406Z,37.00
2022-12-12T00:25:10.659Z,37.10
2022-12-12T00:30:13.973Z,36.90
2022-12-12T00:35:18.069Z,36.90
2022-12-12T00:40:20.710Z,37.10
2022-12-12T00:45:23.401Z,36.90
2022-12-12T00:50:27.414Z,37.10
2022-12-12T00:55:30.169Z,37.00
2022-12-12T01:00:33.407Z,37.00
2022-12-12T01:05:37.374Z,36.90
2022-12-12T01:10:40.122Z,37.00
2022-12-12T01:15:42.791Z,37.00
2022-12-12T01:20:46.775Z,37.30
2022-12-12T01:25:49.553Z,37.10
2022-12-12T01:30:52.210Z,37.00
2022-12-12T01:35:56.658Z,36.80
2022-12-12T01:40:59.369Z,37.00
2022-12-12T01:46:20.007Z,37.00
2022-12-12T01:51:28.983Z,37.00
2022-12-12T01:56:31.971Z,36.90
2022-12-12T02:01:37.000Z,36.90
2022-12-12T02:06:41.777Z,37.00
2022-12-12T02:11:45.973Z,36.90
2022-12-12T02:17:03.538Z,36.80
2022-12-12T02:22:12.992Z,37.00
2022-12-12T02:27:33.669Z,37.00
2022-12-12T02:32:43.597Z,37.00
2022-12-12T02:37:49.917Z,36.70
2022-12-12T02:42:56.730Z,36.80
2022-12-12T02:48:04.524Z,36.90
2022-12-12T02:53:07.517Z,37.00
2022-12-12T02:58:10.238Z,37.00
2022-12-12T03:03:44.633Z,36.80
2022-12-12T03:08:53.609Z,37.00
2022-12-12T03:13:57.892Z,36.90
2022-12-12T03:19:06.701Z,37.00
2022-12-12T03:24:11.617Z,37.00
2022-12-12T03:29:16.465Z,36.80
2022-12-12T03:34:21.717Z,36.80
2022-12-12T03:39:26.354Z,36.80
2022-12-12T03:44:39.764Z,37.00
2022-12-12T03:49:48.760Z,36.90
2022-12-12T03:54:54.758Z,36.80
2022-12-12T03:59:59.669Z,36.70
2022-12-12T04:05:07.367Z,37.00
2022-12-12T04:10:28.746Z,37.00
2022-12-12T04:15:39.704Z,37.00
2022-12-12T04:21:03.265Z,36.80
2022-12-12T04:26:29.677Z,36.90
2022-12-12T04:31:33.539Z,36.90
2022-12-12T04:36:38.397Z,36.90
2022-12-12T04:41:42.028Z,36.90
2022-12-12T04:46:46.052Z,36.90
2022-12-12T04:51:52.446Z,36.90
2022-12-12T04:56:57.293Z,37.00
2022-12-12T05:02:01.622Z,37.00
2022-12-12T05:07:08.334Z,37.10
2022-12-12T05:12:11.259Z,37.00
2022-12-12T05:17:16.110Z,36.90
2022-12-12T05:22:20.082Z,37.00
2022-12-12T05:27:22.694Z,36.90
2022-12-12T05:32:25.395Z,36.70
2022-12-12T05:37:29.377Z,36.70
2022-12-12T05:42:32.006Z,36.60
2022-12-12T05:47:34.762Z,36.90
2022-12-12T05:52:38.795Z,36.80
2022-12-12T05:57:41.419Z,36.70
2022-12-12T06:02:44.128Z,36.50
2022-12-12T06:07:48.265Z,36.50
2022-12-12T06:12:51.018Z,36.70
2022-12-12T06:17:53.646Z,36.40
2022-12-12T06:22:58.427Z,36.50
2022-12-12T06:28:01.170Z,36.40
2022-12-12T06:33:03.842Z,36.50
2022-12-12T06:38:08.222Z,36.60
2022-12-12T06:43:10.931Z,36.70
2022-12-12T06:48:13.669Z,36.60
2022-12-12T06:53:17.737Z,36.70
2022-12-12T06:58:20.437Z,36.50
2022-12-12T07:03:23.226Z,36.80
2022-12-12T07:08:28.307Z,36.60
2022-12-12T07:13:31.057Z,36.70
2022-12-12T07:18:33.717Z,36.60
2022-12-12T07:23:37.763Z,36.60
2022-12-12T07:28:40.449Z,36.80
2022-12-12T07:33:44.697Z,36.80
2022-12-12T07:38:48.899Z,36.90
2022-12-12T07:43:52.297Z,36.90
2022-12-12T07:48:54.998Z,36.60
2022-12-12T07:53:59.015Z,36.60
2022-12-12T07:59:01.768Z,36.10
2022-12-12T08:04:04.586Z,35.80
2022-12-12T08:09:08.598Z,35.80
2022-12-12T08:14:13.230Z,35.50
2022-12-12T08:19:16.706Z,35.60
2022-12-12T08:24:20.697Z,35.50
2022-12-12T08:29:23.361Z,35.60
2022-12-12T08:34:26.079Z,35.80
2022-12-12T08:39:30.087Z,36.20
2022-12-12T08:44:32.793Z,36.20
2022-12-12T08:49:35.500Z,36.00
2022-12-12T08:54:39.508Z,36.10
2022-12-12T08:59:42.185Z,36.20
2022-12-12T09:04:44.822Z,35.70
2022-12-12T09:09:48.803Z,35.30
2022-12-12T09:14:51.439Z,35.10
2022-12-12T09:19:54.202Z,35.10
2022-12-12T09:24:58.250Z,35.10
2022-12-12T09:30:00.959Z,36.10
2022-12-12T09:35:03.658Z,35.60
2022-12-12T09:40:09.331Z,35.70
2022-12-12T09:45:12.388Z,35.70
2022-12-12T09:50:17.626Z,35.70
2022-12-12T09:55:39.455Z,35.50
2022-12-12T10:00:43.578Z,35.70
2022-12-12T10:06:07.455Z,35.40
2022-12-12T10:11:35.610Z,35.20
2022-12-12T10:16:39.544Z,35.40
2022-12-12T10:21:42.653Z,35.40
2022-12-12T10:26:46.640Z,35.90
2022-12-12T10:31:53.464Z,35.80
2022-12-12T10:37:00.405Z,36.30
2022-12-12T10:42:08.206Z,35.90
2022-12-12T10:47:12.799Z,35.90
2022-12-12T10:52:17.830Z,35.30
2022-12-12T10:57:24.167Z,35.60
2022-12-12T11:02:29.280Z,35.50
2022-12-12T11:07:32.419Z,36.30
2022-12-12T11:12:37.968Z,36.00
2022-12-12T11:17:40.637Z,35.80
2022-12-12T11:22:43.405Z,36.10
2022-12-12T11:27:47.445Z,36.40
2022-12-12T11:32:50.706Z,35.90
2022-12-12T11:37:55.636Z,36.10
2022-12-12T11:43:25.300Z,35.80
2022-12-12T11:48:36.810Z,36.10
2022-12-12T11:53:40.170Z,35.60
2022-12-12T11:58:46.840Z,36.40
2022-12-12T12:04:08.926Z,35.90
2022-12-12T12:09:17.386Z,35.50
2022-12-12T12:14:33.916Z,35.60
2022-12-12T12:19:42.127Z,35.60
2022-12-12T12:25:05.858Z,35.40
2022-12-12T12:30:17.838Z,35.60
2022-12-12T12:35:28.815Z,35.80
2022-12-12T12:40:38.341Z,35.80
2022-12-12T12:45:45.501Z,35.60
2022-12-12T12:50:53.151Z,35.40
2022-12-12T12:55:57.667Z,36.20
2022-12-12T13:01:01.933Z,35.60
2022-12-12T13:06:09.269Z,35.80
2022-12-12T13:11:15.148Z,35.50
2022-12-12T13:16:19.800Z,35.50
2022-12-12T13:21:27.709Z,35.60
2022-12-12T13:26:34.267Z,35.60
2022-12-12T13:31:43.802Z,35.70
2022-12-12T13:36:49.626Z,36.00
2022-12-12T13:41:56.406Z,35.40
2022-12-12T13:46:59.085Z,35.30
2022-12-12T13:52:21.097Z,35.30
2022-12-12T13:57:34.276Z,35.30
2022-12-12T14:02:38.070Z,35.50
2022-12-12T14:07:48.528Z,35.40
2022-12-12T14:12:52.898Z,35.80
2022-12-12T14:17:58.270Z,35.60
2022-12-12T14:23:08.991Z,35.80
2022-12-12T14:28:20.890Z,35.60
2022-12-12T14:33:41.513Z,35.40
2022-12-12T14:38:46.245Z,35.30
2022-12-12T14:44:36.717Z,35.30
2022-12-12T14:49:16.699Z,35.40
2022-12-12T14:54:20.771Z,35.50
2022-12-12T14:59:26.511Z,35.00
2022-12-12T15:04:30.282Z,35.20
2022-12-12T15:09:34.163Z,35.40
2022-12-12T15:14:38.632Z,35.40
2022-12-12T15:19:41.867Z,35.30
2022-12-12T15:24:45.830Z,35.20
2022-12-12T15:29:50.076Z,35.20
2022-12-12T15:35:00.650Z,35.30
2022-12-12T15:40:17.483Z,35.40
2022-12-12T15:45:24.075Z,35.50
2022-12-12T15:50:28.271Z,35.10
2022-12-12T15:55:45.805Z,35.30
2022-12-12T16:00:51.432Z,35.40
2022-12-12T16:06:05.226Z,35.40
2022-12-12T16:11:48.005Z,35.30
2022-12-12T16:22:50.158Z,35.30
2022-12-12T16:33:45.336Z,35.30
2022-12-12T16:38:49.392Z,35.40
2022-12-12T16:43:52.103Z,35.20
2022-12-12T16:48:57.182Z,35.40
2022-12-12T16:54:01.202Z,35.60
2022-12-12T16:59:04.028Z,35.40
2022-12-12T17:04:07.849Z,35.40
2022-12-12T17:09:11.851Z,35.80
2022-12-12T17:14:17.417Z,35.40
2022-12-12T17:19:20.642Z,35.10
2022-12-12T17:24:24.714Z,35.00
2022-12-12T17:29:27.367Z,35.10
2022-12-12T17:34:29.989Z,35.30
2022-12-12T17:39:34.026Z,35.30
2022-12-12T17:44:36.689Z,35.50
2022-12-12T17:49:39.417Z,35.70
2022-12-12T17:54:43.866Z,35.50
2022-12-12T18:00:08.634Z,35.70
2022-12-12T18:05:11.302Z,35.80
2022-12-12T18:10:15.826Z,35.80
2022-12-12T18:15:18.778Z,35.90
2022-12-12T18:20:22.785Z,35.80
2022-12-12T18:25:28.322Z,36.00
2022-12-12T18:30:31.037Z,36.10
2022-12-12T18:35:33.971Z,36.00
2022-12-12T18:40:39.223Z,36.10
2022-12-12T18:45:41.907Z,36.10
2022-12-12T18:50:44.615Z,36.00
2022-12-12T18:55:48.660Z,36.00
2022-12-12T19:00:51.375Z,36.30
2022-12-12T19:05:54.047Z,36.10
2022-12-12T19:10:58.061Z,36.20
2022-12-12T19:16:04.019Z,36.30
2022-12-12T19:21:07.549Z,36.30
2022-12-12T19:26:12.486Z,36.20
2022-12-12T19:31:15.900Z,36.40
2022-12-12T19:36:19.481Z,36.30
2022-12-12T19:41:23.848Z,36.30
2022-12-12T19:46:27.916Z,36.40
2022-12-12T19:51:32.634Z,36.30
2022-12-12T19:56:37.786Z,36.40
2022-12-12T20:01:41.420Z,36.40
2022-12-12T20:06:45.908Z,36.20
2022-12-12T20:11:50.563Z,36.30
2022-12-12T20:16:54.113Z,36.50
2022-12-12T20:22:01.660Z,36.50
2022-12-12T20:27:06.666Z,36.30
2022-12-12T20:32:10.281Z,36.50
2022-12-12T20:37:16.717Z,36.40
2022-12-12T20:42:24.301Z,36.60
2022-12-12T20:47:26.948Z,36.40
2022-12-12T20:52:29.817Z,36.20
2022-12-12T20:57:33.843Z,36.40
2022-12-12T21:02:36.592Z,36.30
2022-12-12T21:07:39.296Z,36.30
2022-12-12T21:12:43.278Z,36.50
2022-12-12T21:17:45.973Z,36.30
2022-12-12T21:22:48.694Z,36.10
2022-12-12T21:27:52.702Z,36.20
2022-12-12T21:32:55.433Z,36.40
2022-12-12T21:37:58.375Z,36.20
2022-12-12T21:43:02.400Z,36.60
2022-12-12T21:48:05.325Z,36.30
2022-12-12T21:53:25.489Z,36.30
2022-12-12T21:58:29.488Z,36.20
2022-12-12T22:03:32.140Z,36.10
2022-12-12T22:08:34.873Z,36.30
2022-12-12T22:13:40.237Z,36.10
2022-12-12T22:18:43.041Z,36.20
2022-12-12T22:23:46.218Z,36.30
2022-12-12T22:28:51.353Z,36.30
2022-12-12T22:33:55.338Z,36.30
2022-12-12T22:38:58.737Z,36.10
2022-12-12T22:44:03.734Z,36.10
2022-12-12T22:49:06.374Z,36.20
2022-12-12T22:54:09.068Z,36.10
2022-12-12T22:59:14.195Z,36.30
2022-12-12T23:04:16.954Z,36.30
2022-12-12T23:09:21.262Z,36.20
2022-12-12T23:14:26.288Z,36.20
2022-12-12T23:19:28.963Z,36.20
2022-12-12T23:24:31.832Z,36.30
2022-12-12T23:29:35.926Z,36.30
2022-12-12T23:34:38.585Z,36.20
2022-12-12T23:39:41.365Z,36.20
2022-12-12T23:44:50.828Z,36.10
2022-12-12T23:49:53.712Z,36.20
2022-12-12T23:54:56.430Z,36.20
